createdAt,value
2018-01-02T00:02:02.330Z,3.47
2018-01-02T00:08:05.992Z,5.53
2018-01-02T00:14:09.595Z,3.53
2018-01-02T00:20:13.056Z,3.10
2018-01-02T00:26:16.574Z,4.00
2018-01-02T00:32:20.184Z,7.07
2018-01-02T00:38:23.928Z,6.33
2018-01-02T00:44:27.411Z,3.37
2018-01-02T00:50:31.632Z,5.00
2018-01-02T00:56:35.161Z,3.50
2018-01-02T01:02:39.460Z,6.30
2018-01-02T01:08:42.930Z,5.57
2018-01-02T01:14:46.419Z,3.20
2018-01-02T01:20:50.032Z,7.13
2018-01-02T01:26:54.307Z,4.47
2018-01-02T01:32:58.038Z,3.93
2018-01-02T01:39:02.254Z,2.40
2018-01-02T01:45:05.733Z,4.90
2018-01-02T01:51:09.193Z,2.63
2018-01-02T01:57:12.725Z,3.90
2018-01-02T02:03:16.258Z,1.67
2018-01-02T02:09:19.763Z,1.20
2018-01-02T02:15:23.685Z,1.37
2018-01-02T02:21:27.241Z,2.33
2018-01-02T02:27:30.721Z,2.10
2018-01-02T02:33:34.182Z,1.67
2018-01-02T02:39:37.660Z,1.27
2018-01-02T02:45:41.401Z,2.13
2018-01-02T02:51:45.735Z,1.50
2018-01-02T02:57:49.396Z,1.57
2018-01-02T03:03:53.847Z,1.77
2018-01-02T03:09:57.328Z,2.67
2018-01-02T03:16:00.841Z,2.07
2018-01-02T03:22:04.366Z,1.90
2018-01-02T03:28:07.857Z,3.77
2018-01-02T03:34:11.322Z,2.80
2018-01-02T03:40:14.799Z,2.07
2018-01-02T03:46:18.385Z,1.63
2018-01-02T03:52:23.556Z,3.47
2018-01-02T03:58:27.076Z,2.37
2018-01-02T04:04:30.611Z,1.70
2018-01-02T04:10:34.091Z,2.20
2018-01-02T04:16:37.702Z,2.30
2018-01-02T04:22:41.292Z,2.10
2018-01-02T04:28:44.821Z,1.37
2018-01-02T04:34:49.059Z,1.90
2018-01-02T04:40:52.994Z,3.40
2018-01-02T04:46:56.622Z,1.97
2018-01-02T04:53:00.182Z,2.20
2018-01-02T04:59:03.732Z,2.40
2018-01-02T05:05:07.198Z,1.10
2018-01-02T05:11:10.691Z,2.10
2018-01-02T05:17:15.275Z,1.10
2018-01-02T05:23:18.911Z,0.87
2018-01-02T05:29:22.905Z,2.67
2018-01-02T05:35:26.940Z,3.43
2018-01-02T05:41:30.455Z,1.87
2018-01-02T05:47:34.103Z,1.87
2018-01-02T05:53:38.375Z,1.20
2018-01-02T05:59:43.455Z,1.40
2018-01-02T06:05:47.194Z,2.53
2018-01-02T06:11:51.300Z,3.67
2018-01-02T06:17:55.529Z,1.90
2018-01-02T06:23:59.942Z,5.30
2018-01-02T06:30:04.203Z,3.90
2018-01-02T06:36:07.733Z,2.60
2018-01-02T06:42:11.192Z,1.60
2018-01-02T06:48:14.710Z,2.27
2018-01-02T06:54:18.168Z,4.40
2018-01-02T07:00:22.199Z,11.40
2018-01-02T07:06:26.632Z,5.97
2018-01-02T07:12:30.166Z,2.03
2018-01-02T07:18:33.650Z,3.40
2018-01-02T07:24:37.131Z,12.60
2018-01-02T07:30:41.374Z,3.13
2018-01-02T07:36:44.841Z,7.80
2018-01-02T07:42:48.297Z,5.23
2018-01-02T07:48:52.037Z,7.73
2018-01-02T07:54:55.732Z,9.03
2018-01-02T08:00:59.971Z,8.53
2018-01-02T08:07:03.619Z,8.33
2018-01-02T08:13:07.120Z,10.20
2018-01-02T08:19:11.403Z,8.90
2018-01-02T08:25:14.881Z,11.20
2018-01-02T08:31:18.340Z,10.27
2018-01-02T08:37:21.847Z,12.43
2018-01-02T08:43:26.394Z,33.20
2018-01-02T08:49:30.059Z,20.37
2018-01-02T08:55:34.371Z,8.27
2018-01-02T09:01:37.842Z,15.20
2018-01-02T09:07:42.137Z,11.23
2018-01-02T09:13:51.647Z,12.60
2018-01-02T09:19:55.486Z,14.87
2018-01-02T09:25:58.997Z,19.60
2018-01-02T09:32:03.440Z,13.27
2018-01-02T09:38:06.957Z,13.63
2018-01-02T09:44:10.449Z,13.00
2018-01-02T09:50:14.004Z,16.67
2018-01-02T09:56:17.546Z,14.60
2018-01-02T10:02:21.150Z,11.60
2018-01-02T10:08:24.737Z,13.97
2018-01-02T10:14:28.334Z,16.10
2018-01-02T10:20:31.861Z,14.93
2018-01-02T10:26:35.443Z,13.23
2018-01-02T10:32:38.917Z,23.07
2018-01-02T10:38:42.447Z,20.60
2018-01-02T10:44:46.177Z,18.27
2018-01-02T10:50:49.685Z,25.20
2018-01-02T10:56:53.990Z,21.37
2018-01-02T11:02:57.488Z,26.70
2018-01-02T11:09:01.052Z,29.77
2018-01-02T11:15:06.811Z,19.80
2018-01-02T11:21:10.632Z,25.87
2018-01-02T11:27:14.166Z,21.77
2018-01-02T11:33:17.679Z,20.00
2018-01-02T11:39:21.697Z,28.73
2018-01-02T11:45:26.296Z,32.33
2018-01-02T11:51:30.733Z,22.00
2018-01-02T11:57:34.357Z,23.33
2018-01-02T12:03:37.898Z,24.13
2018-01-02T12:09:42.191Z,19.87
2018-01-02T12:15:45.674Z,27.53
2018-01-02T12:21:49.187Z,21.90
2018-01-02T12:27:53.291Z,18.23
2018-01-02T12:33:57.700Z,22.53
2018-01-02T12:40:01.218Z,24.93
2018-01-02T12:46:04.738Z,15.93
2018-01-02T12:52:08.232Z,22.17
2018-01-02T12:58:11.754Z,15.30
2018-01-02T13:04:15.402Z,21.23
2018-01-02T13:10:18.924Z,19.90
2018-01-02T13:16:22.689Z,13.60
2018-01-02T13:22:27.050Z,21.87
2018-01-02T13:28:30.560Z,14.60
2018-01-02T13:34:34.035Z,20.27
2018-01-02T13:40:37.517Z,22.97
2018-01-02T13:46:41.143Z,4.30
2018-01-02T13:52:44.636Z,8.00
2018-01-02T13:58:48.102Z,6.40
2018-01-02T14:04:52.743Z,16.67
2018-01-02T14:10:56.693Z,10.70
2018-01-02T14:17:00.190Z,5.33
2018-01-02T14:23:03.662Z,6.83
2018-01-02T14:29:07.272Z,7.50
2018-01-02T14:35:10.816Z,7.53
2018-01-02T14:41:14.268Z,11.37
2018-01-02T14:47:17.773Z,10.43
2018-01-02T14:53:21.751Z,12.03
2018-01-02T14:59:25.491Z,16.60
2018-01-02T15:05:29.726Z,17.83
2018-01-02T15:11:33.202Z,21.60
2018-01-02T15:17:37.009Z,7.93
2018-01-02T15:23:40.551Z,8.63
2018-01-02T15:29:44.051Z,10.80
2018-01-02T15:35:47.548Z,8.70
2018-01-02T15:41:51.509Z,13.33
2018-01-02T15:47:55.853Z,7.77
2018-01-02T15:53:59.386Z,9.87
2018-01-02T16:00:02.932Z,5.60
2018-01-02T16:06:06.471Z,11.30
2018-01-02T16:12:10.047Z,11.43
2018-01-02T16:18:13.482Z,20.07
2018-01-02T16:24:16.961Z,8.17
2018-01-02T16:30:21.765Z,11.70
2018-01-02T16:36:25.508Z,5.17
2018-01-02T16:42:29.254Z,13.20
2018-01-02T16:48:33.028Z,18.20
2018-01-02T16:54:36.499Z,5.93
2018-01-02T17:00:40.052Z,5.97
2018-01-02T17:06:43.553Z,8.80
2018-01-02T17:12:47.025Z,14.67
2018-01-02T17:18:50.694Z,10.60
2018-01-02T17:24:54.307Z,8.27
2018-01-02T17:30:58.660Z,5.47
2018-01-02T17:37:02.221Z,16.50
2018-01-02T17:43:05.649Z,13.20
2018-01-02T17:49:09.138Z,7.03
2018-01-02T17:55:12.612Z,8.13
2018-01-02T18:01:16.050Z,7.10
2018-01-02T18:07:20.493Z,8.20
2018-01-02T18:13:24.014Z,9.00
2018-01-02T18:19:28.305Z,11.07
2018-01-02T18:25:32.103Z,10.57
2018-01-02T18:31:35.623Z,19.07
2018-01-02T18:37:39.262Z,10.30
2018-01-02T18:43:42.722Z,16.20
2018-01-02T18:49:46.178Z,9.73
2018-01-02T18:55:49.597Z,8.90
2018-01-02T19:01:54.670Z,11.77
2018-01-02T19:07:58.922Z,12.00
2018-01-02T19:14:02.454Z,6.43
2018-01-02T19:20:05.893Z,12.10
2018-01-02T19:26:09.376Z,10.30
2018-01-02T19:32:12.865Z,8.40
2018-01-02T19:38:16.374Z,11.10
2018-01-02T19:44:20.865Z,12.60
2018-01-02T19:50:24.578Z,12.80
2018-01-02T19:56:28.100Z,11.30
2018-01-02T20:02:32.546Z,14.87
2018-01-02T20:08:36.011Z,14.57
2018-01-02T20:14:39.593Z,8.67
2018-01-02T20:20:43.950Z,29.53
2018-01-02T20:26:47.382Z,15.50
2018-01-02T20:32:50.944Z,14.63
2018-01-02T20:38:54.713Z,7.73
2018-01-02T20:44:58.242Z,13.33
2018-01-02T20:51:03.388Z,8.93
2018-01-02T20:57:06.928Z,12.00
2018-01-02T21:03:11.137Z,14.53
2018-01-02T21:09:14.572Z,8.60
2018-01-02T21:15:18.768Z,8.70
2018-01-02T21:21:22.295Z,9.57
2018-01-02T21:27:26.759Z,5.13
2018-01-02T21:33:30.944Z,11.20
2018-01-02T21:39:34.520Z,9.23
2018-01-02T21:45:37.970Z,10.77
2018-01-02T21:51:41.479Z,9.10
2018-01-02T21:57:45.074Z,12.07
2018-01-02T22:03:48.655Z,6.73
2018-01-02T22:09:52.304Z,11.03
2018-01-02T22:15:56.040Z,6.93
2018-01-02T22:21:59.560Z,20.03
2018-01-02T22:28:03.088Z,8.33
2018-01-02T22:34:06.512Z,8.83
2018-01-02T22:40:10.207Z,10.30
2018-01-02T22:46:13.974Z,13.13
2018-01-02T22:52:17.454Z,12.43
2018-01-02T22:58:21.697Z,12.03
2018-01-02T23:04:25.260Z,11.63
2018-01-02T23:10:28.731Z,9.40
2018-01-02T23:16:32.906Z,12.23
2018-01-02T23:22:37.208Z,16.27
2018-01-02T23:28:40.663Z,10.00
2018-01-02T23:34:44.080Z,6.83
2018-01-02T23:40:48.278Z,12.80
2018-01-02T23:46:53.502Z,18.13
2018-01-02T23:52:56.985Z,17.43
2018-01-02T23:59:00.411Z,8.63
